createdAt,value
2022-12-17T00:02:43.979Z,11.37
2022-12-17T00:05:29.558Z,15.40
2022-12-17T00:08:15.397Z,12.47
2022-12-17T00:11:00.948Z,10.00
2022-12-17T00:13:47.760Z,9.47
2022-12-17T00:16:44.715Z,12.00
2022-12-17T00:19:29.854Z,10.43
2022-12-17T00:22:15.259Z,9.50
2022-12-17T00:25:00.831Z,12.57
2022-12-17T00:27:46.162Z,7.60
2022-12-17T00:30:32.881Z,10.97
2022-12-17T00:33:18.345Z,10.73
2022-12-17T00:36:08.776Z,7.80
2022-12-17T00:38:56.380Z,12.50
2022-12-17T00:41:42.064Z,11.97
2022-12-17T00:44:27.430Z,7.93
2022-12-17T00:47:28.619Z,11.87
2022-12-17T00:50:14.255Z,9.50
2022-12-17T00:52:59.338Z,5.53
2022-12-17T00:55:44.820Z,8.83
2022-12-17T00:58:30.110Z,12.00
2022-12-17T01:01:17.284Z,10.43
2022-12-17T01:04:04.229Z,9.57
2022-12-17T01:06:49.594Z,5.40
2022-12-17T01:09:35.080Z,6.17
2022-12-17T01:12:20.483Z,9.67
2022-12-17T01:15:05.880Z,12.03
2022-12-17T01:17:51.407Z,13.60
2022-12-17T01:20:44.240Z,14.00
2022-12-17T01:23:29.536Z,12.97
2022-12-17T01:26:15.297Z,9.67
2022-12-17T01:29:01.676Z,10.70
2022-12-17T01:31:47.157Z,8.67
2022-12-17T01:34:32.407Z,9.87
2022-12-17T01:37:19.131Z,8.97
2022-12-17T01:40:04.420Z,9.73
2022-12-17T01:42:56.647Z,8.63
2022-12-17T01:45:41.964Z,10.33
2022-12-17T01:48:29.839Z,10.03
2022-12-17T01:51:15.346Z,4.33
2022-12-17T01:54:03.459Z,8.53
2022-12-17T01:57:03.025Z,8.50
2022-12-17T01:59:54.176Z,13.33
2022-12-17T02:02:39.758Z,11.60
2022-12-17T02:05:25.612Z,9.27
2022-12-17T02:08:14.528Z,7.83
2022-12-17T02:11:03.717Z,8.27
2022-12-17T02:14:01.144Z,8.93
2022-12-17T02:16:48.948Z,6.40
2022-12-17T02:19:41.560Z,3.87
2022-12-17T02:22:30.156Z,7.00
2022-12-17T02:25:17.642Z,11.70
2022-12-17T02:28:04.504Z,5.30
2022-12-17T02:30:50.059Z,11.47
2022-12-17T02:33:36.085Z,8.90
2022-12-17T02:36:22.898Z,3.93
2022-12-17T02:39:08.296Z,4.67
2022-12-17T02:41:59.927Z,8.23
2022-12-17T02:44:46.782Z,7.93
2022-12-17T02:47:32.197Z,8.93
2022-12-17T02:50:17.597Z,12.87
2022-12-17T02:53:04.957Z,6.60
2022-12-17T02:55:50.431Z,8.27
2022-12-17T02:58:47.322Z,5.40
2022-12-17T03:01:34.531Z,7.10
2022-12-17T03:04:20.303Z,5.57
2022-12-17T03:07:05.629Z,5.67
2022-12-17T03:09:50.855Z,7.70
2022-12-17T03:12:36.259Z,6.97
2022-12-17T03:15:21.597Z,8.87
2022-12-17T03:18:08.635Z,8.83
2022-12-17T03:20:54.062Z,5.17
2022-12-17T03:23:39.598Z,5.20
2022-12-17T03:26:24.828Z,9.87
2022-12-17T03:29:10.214Z,11.70
2022-12-17T03:32:07.204Z,4.63
2022-12-17T03:34:54.262Z,5.83
2022-12-17T03:37:39.591Z,10.53
2022-12-17T03:40:26.006Z,8.07
2022-12-17T03:43:11.408Z,8.23
2022-12-17T03:45:56.956Z,6.80
2022-12-17T03:48:42.201Z,6.70
2022-12-17T03:51:43.761Z,8.67
2022-12-17T03:54:29.402Z,5.43
2022-12-17T03:57:16.908Z,10.17
2022-12-17T04:00:10.748Z,10.13
2022-12-17T04:02:56.356Z,7.40
2022-12-17T04:05:41.607Z,6.97
2022-12-17T04:08:28.334Z,5.60
2022-12-17T04:11:19.090Z,3.80
2022-12-17T04:14:04.411Z,9.33
2022-12-17T04:16:49.851Z,6.30
2022-12-17T04:19:35.358Z,7.80
2022-12-17T04:22:20.723Z,10.27
2022-12-17T04:25:07.464Z,7.37
2022-12-17T04:27:52.786Z,6.77
2022-12-17T04:30:38.249Z,11.37
2022-12-17T04:33:20.011Z,6.73
2022-12-17T04:36:05.463Z,5.30
2022-12-17T04:38:47.292Z,7.20
2022-12-17T04:41:34.078Z,5.33
2022-12-17T04:44:19.485Z,6.17
2022-12-17T04:47:04.943Z,6.87
2022-12-17T04:49:50.393Z,7.57
2022-12-17T04:52:35.800Z,5.50
2022-12-17T04:55:21.231Z,5.43
2022-12-17T04:58:10.277Z,4.83
2022-12-17T05:00:55.604Z,6.93
2022-12-17T05:03:41.095Z,14.30
2022-12-17T05:06:27.201Z,8.70
2022-12-17T05:09:12.545Z,6.40
2022-12-17T05:11:57.983Z,4.43
2022-12-17T05:14:44.565Z,9.97
2022-12-17T05:17:44.543Z,7.57
2022-12-17T05:20:30.178Z,3.80
2022-12-17T05:23:15.730Z,6.47
2022-12-17T05:26:01.222Z,5.87
2022-12-17T05:28:46.623Z,5.97
2022-12-17T05:31:29.782Z,4.57
2022-12-17T05:34:15.125Z,8.00
2022-12-17T05:37:00.617Z,5.10
2022-12-17T05:39:45.960Z,8.37
2022-12-17T05:42:31.471Z,5.40
2022-12-17T05:45:16.970Z,6.23
2022-12-17T05:48:03.886Z,5.03
2022-12-17T05:51:03.905Z,8.57
2022-12-17T05:53:49.030Z,9.73
2022-12-17T05:56:30.829Z,9.37
2022-12-17T05:59:16.111Z,3.73
2022-12-17T06:02:01.612Z,6.17
2022-12-17T06:04:48.564Z,8.17
2022-12-17T06:07:33.865Z,9.40
2022-12-17T06:10:19.308Z,8.33
2022-12-17T06:13:13.891Z,4.13
2022-12-17T06:15:59.334Z,6.23
2022-12-17T06:18:45.122Z,3.83
2022-12-17T06:21:31.754Z,7.27
2022-12-17T06:24:17.061Z,5.10
2022-12-17T06:27:02.535Z,5.87
2022-12-17T06:29:47.956Z,7.10
2022-12-17T06:32:35.510Z,4.87
2022-12-17T06:35:21.029Z,8.43
2022-12-17T06:38:15.624Z,4.23
2022-12-17T06:41:01.107Z,7.53
2022-12-17T06:43:46.315Z,6.10
2022-12-17T06:46:31.673Z,7.73
2022-12-17T06:49:16.820Z,6.33
2022-12-17T06:52:02.305Z,3.83
2022-12-17T06:54:49.105Z,6.70
2022-12-17T06:57:39.173Z,3.50
2022-12-17T07:00:27.996Z,4.13
2022-12-17T07:03:14.936Z,4.10
2022-12-17T07:06:00.573Z,4.67
2022-12-17T07:08:45.986Z,4.80
2022-12-17T07:11:32.785Z,4.40
2022-12-17T07:14:18.012Z,3.67
2022-12-17T07:17:03.412Z,4.93
2022-12-17T07:19:48.860Z,4.13
2022-12-17T07:22:33.992Z,4.80
2022-12-17T07:25:19.544Z,12.40
2022-12-17T07:28:17.912Z,3.40
2022-12-17T07:31:03.338Z,5.73
2022-12-17T07:33:48.519Z,6.27
2022-12-17T07:36:45.394Z,5.90
2022-12-17T07:39:30.813Z,7.77
2022-12-17T07:42:16.334Z,7.40
2022-12-17T07:45:03.398Z,11.13
2022-12-17T07:47:48.811Z,7.50
2022-12-17T07:50:34.291Z,6.80
2022-12-17T07:53:19.664Z,5.87
2022-12-17T07:56:05.139Z,5.90
2022-12-17T07:58:50.408Z,6.83
2022-12-17T08:01:37.189Z,4.50
2022-12-17T08:04:22.852Z,5.37
2022-12-17T08:07:13.245Z,3.50
2022-12-17T08:09:59.220Z,3.23
2022-12-17T08:12:44.728Z,8.10
2022-12-17T08:15:30.291Z,5.00
2022-12-17T08:18:26.151Z,3.97
2022-12-17T08:21:12.224Z,8.43
2022-12-17T08:23:57.831Z,8.40
2022-12-17T08:26:47.786Z,6.10
2022-12-17T08:29:33.863Z,7.67
2022-12-17T08:32:19.359Z,9.53
2022-12-17T08:35:05.649Z,9.97
2022-12-17T08:37:50.930Z,6.27
2022-12-17T08:40:36.471Z,4.70
2022-12-17T08:43:21.888Z,4.90
2022-12-17T08:46:07.313Z,3.97
2022-12-17T08:48:52.651Z,8.50
2022-12-17T08:51:39.115Z,8.53
2022-12-17T08:54:24.599Z,7.13
2022-12-17T08:57:09.868Z,6.27
2022-12-17T08:59:55.565Z,10.83
2022-12-17T09:02:41.121Z,6.53
2022-12-17T09:05:27.256Z,3.87
2022-12-17T09:08:18.790Z,6.27
2022-12-17T09:11:03.994Z,5.87
2022-12-17T09:13:49.492Z,8.03
2022-12-17T09:16:34.939Z,4.83
2022-12-17T09:19:20.004Z,6.03
2022-12-17T09:22:05.395Z,9.20
2022-12-17T09:24:52.158Z,6.07
2022-12-17T09:27:37.432Z,5.13
2022-12-17T09:30:23.414Z,5.43
2022-12-17T09:33:08.858Z,5.80
2022-12-17T09:35:57.292Z,7.17
2022-12-17T09:38:42.721Z,5.40
2022-12-17T09:41:35.519Z,9.30
2022-12-17T09:44:23.510Z,5.13
2022-12-17T09:47:25.455Z,6.40
2022-12-17T09:50:11.062Z,9.80
2022-12-17T09:52:58.796Z,4.57
2022-12-17T09:55:45.199Z,6.17
2022-12-17T09:58:38.283Z,5.10
2022-12-17T10:01:24.293Z,7.20
2022-12-17T10:04:09.673Z,7.07
2022-12-17T10:06:55.864Z,4.13
2022-12-17T10:09:42.321Z,4.27
2022-12-17T10:12:31.908Z,6.33
2022-12-17T10:15:15.110Z,5.73
2022-12-17T10:18:00.603Z,8.20
2022-12-17T10:20:49.597Z,36.33
2022-12-17T10:23:42.453Z,7.37
2022-12-17T10:26:27.783Z,11.07
2022-12-17T10:29:21.271Z,7.53
2022-12-17T10:32:08.225Z,6.40
2022-12-17T10:34:54.671Z,4.20
2022-12-17T10:37:40.036Z,4.50
2022-12-17T10:40:36.075Z,3.37
2022-12-17T10:43:21.446Z,5.90
2022-12-17T10:46:11.882Z,3.90
2022-12-17T10:48:58.862Z,3.03
2022-12-17T10:51:46.893Z,3.73
2022-12-17T10:54:41.624Z,9.07
2022-12-17T10:57:42.836Z,4.67
2022-12-17T11:00:49.085Z,2.20
2022-12-17T11:03:43.275Z,2.60
2022-12-17T11:06:30.273Z,6.63
2022-12-17T11:09:15.704Z,7.07
2022-12-17T11:12:07.077Z,5.50
2022-12-17T11:15:03.848Z,5.13
2022-12-17T11:17:49.427Z,9.63
2022-12-17T11:20:40.919Z,3.90
2022-12-17T11:23:31.107Z,8.97
2022-12-17T11:26:17.181Z,3.47
2022-12-17T11:29:02.813Z,2.83
2022-12-17T11:32:14.705Z,4.77
2022-12-17T11:35:11.318Z,5.77
2022-12-17T11:37:57.660Z,5.53
2022-12-17T11:40:47.498Z,4.97
2022-12-17T11:43:35.422Z,5.17
2022-12-17T11:46:28.536Z,6.83
2022-12-17T11:49:16.274Z,5.30
2022-12-17T11:52:04.561Z,2.40
2022-12-17T11:54:53.160Z,1.93
2022-12-17T11:57:46.173Z,9.03
2022-12-17T12:00:34.727Z,2.40
2022-12-17T12:03:28.023Z,3.07
2022-12-17T12:06:16.160Z,4.33
2022-12-17T12:09:04.315Z,1.70
2022-12-17T12:11:51.771Z,3.20
2022-12-17T12:14:44.834Z,2.77
2022-12-17T12:17:40.773Z,2.80
2022-12-17T12:20:29.733Z,3.97
2022-12-17T12:23:17.626Z,5.77
2022-12-17T12:26:06.184Z,2.10
2022-12-17T12:28:53.553Z,2.83
2022-12-17T12:31:52.850Z,4.30
2022-12-17T12:34:42.116Z,7.47
2022-12-17T12:37:31.303Z,4.53
2022-12-17T12:40:19.261Z,5.73
2022-12-17T12:43:06.304Z,6.07
2022-12-17T12:45:57.139Z,11.27
2022-12-17T12:48:55.776Z,7.60
2022-12-17T12:51:42.059Z,4.93
2022-12-17T12:54:42.446Z,4.57
2022-12-17T12:57:47.265Z,5.60
2022-12-17T13:00:50.384Z,4.50
2022-12-17T13:03:52.219Z,3.67
2022-12-17T13:06:43.347Z,5.03
2022-12-17T13:09:35.325Z,4.33
2022-12-17T13:12:33.845Z,3.40
2022-12-17T13:15:17.089Z,2.07
2022-12-17T13:17:46.623Z,5.97
2022-12-17T13:20:29.303Z,1.80
2022-12-17T13:23:19.135Z,6.30
2022-12-17T13:25:47.465Z,8.07
2022-12-17T13:28:28.422Z,4.53
2022-12-17T13:31:05.780Z,8.13
2022-12-17T13:33:39.972Z,3.97
2022-12-17T13:36:10.735Z,6.03
2022-12-17T13:38:43.940Z,6.00
2022-12-17T13:41:13.090Z,4.87
2022-12-17T13:43:43.614Z,1.87
2022-12-17T13:46:19.783Z,5.63
2022-12-17T13:48:53.955Z,2.63
2022-12-17T13:51:22.306Z,4.37
2022-12-17T13:53:54.883Z,2.30
2022-12-17T13:56:27.252Z,5.10
2022-12-17T13:58:56.057Z,3.83
2022-12-17T14:01:26.186Z,5.33
2022-12-17T14:04:11.198Z,7.73
2022-12-17T14:06:39.290Z,5.47
2022-12-17T14:09:08.594Z,4.77
2022-12-17T14:11:56.020Z,3.03
2022-12-17T14:14:33.099Z,3.87
2022-12-17T14:17:01.049Z,4.53
2022-12-17T14:19:28.954Z,6.03
2022-12-17T14:21:56.846Z,4.37
2022-12-17T14:24:29.274Z,3.17
2022-12-17T14:26:58.098Z,5.93
2022-12-17T14:29:27.642Z,11.77
2022-12-17T14:31:56.552Z,4.10
2022-12-17T14:34:24.487Z,7.07
2022-12-17T14:36:57.659Z,5.70
2022-12-17T14:39:27.836Z,12.10
2022-12-17T14:42:14.070Z,22.63
2022-12-17T14:44:50.951Z,17.10
2022-12-17T14:47:20.676Z,13.93
2022-12-17T14:49:55.892Z,6.53
2022-12-17T14:52:31.407Z,4.30
2022-12-17T14:55:00.700Z,7.40
2022-12-17T14:57:28.554Z,9.80
2022-12-17T14:59:56.479Z,35.87
2022-12-17T15:02:26.709Z,10.90
2022-12-17T15:04:56.963Z,8.23
2022-12-17T15:07:26.389Z,6.73
2022-12-17T15:09:54.486Z,6.27
2022-12-17T15:12:23.894Z,8.73
2022-12-17T15:14:51.825Z,10.30
2022-12-17T15:17:19.738Z,4.63
2022-12-17T15:19:54.183Z,3.80
2022-12-17T15:22:23.812Z,5.37
2022-12-17T15:24:51.695Z,3.80
2022-12-17T15:27:19.766Z,5.43
2022-12-17T15:29:49.060Z,4.97
2022-12-17T15:32:19.201Z,4.37
2022-12-17T15:34:47.156Z,4.70
2022-12-17T15:37:15.222Z,5.83
2022-12-17T15:39:43.140Z,12.33
2022-12-17T15:42:28.612Z,4.07
2022-12-17T15:44:57.871Z,4.77
2022-12-17T15:49:53.708Z,12.93
2022-12-17T15:52:22.436Z,6.63
2022-12-17T15:54:50.389Z,4.07
2022-12-17T15:57:18.814Z,4.10
2022-12-17T15:59:46.919Z,5.40
2022-12-17T16:02:16.291Z,8.07
2022-12-17T16:04:44.276Z,4.80
2022-12-17T16:07:12.184Z,7.43
2022-12-17T16:09:40.074Z,10.27
2022-12-17T16:12:08.107Z,8.53
2022-12-17T16:14:36.015Z,10.93
2022-12-17T16:17:04.084Z,9.30
2022-12-17T16:19:33.375Z,7.73
2022-12-17T16:22:01.264Z,7.30
2022-12-17T16:24:29.162Z,12.90
2022-12-17T16:27:02.475Z,10.00
2022-12-17T16:29:32.484Z,11.30
2022-12-17T16:32:00.636Z,9.73
2022-12-17T16:34:29.034Z,14.57
2022-12-17T16:36:58.315Z,8.77
2022-12-17T16:39:26.234Z,5.83
2022-12-17T16:41:54.363Z,8.40
2022-12-17T16:44:22.268Z,6.50
2022-12-17T16:46:50.331Z,8.03
2022-12-17T16:49:19.186Z,7.30
2022-12-17T16:51:47.428Z,7.47
2022-12-17T16:54:17.687Z,8.40
2022-12-17T16:56:45.827Z,4.90
2022-12-17T16:59:13.983Z,6.57
2022-12-17T17:01:42.589Z,12.83
2022-12-17T17:04:10.659Z,9.70
2022-12-17T17:06:40.088Z,10.37
2022-12-17T17:09:08.207Z,12.87
2022-12-17T17:11:37.469Z,15.83
2022-12-17T17:14:05.481Z,19.33
2022-12-17T17:16:34.322Z,16.13
2022-12-17T17:19:02.317Z,21.33
2022-12-17T17:21:30.771Z,12.37
2022-12-17T17:23:59.875Z,10.27
2022-12-17T17:26:28.121Z,6.23
2022-12-17T17:28:57.423Z,10.73
2022-12-17T17:31:46.461Z,6.63
2022-12-17T17:34:14.340Z,5.73
2022-12-17T17:36:42.263Z,16.10
2022-12-17T17:39:10.144Z,29.77
2022-12-17T17:41:38.116Z,58.60
2022-12-17T17:44:08.787Z,48.17
2022-12-17T17:46:36.767Z,33.83
2022-12-17T17:49:07.481Z,26.23
2022-12-17T17:52:07.991Z,19.53
2022-12-17T17:54:24.259Z,17.50
2022-12-17T17:56:52.224Z,11.57
2022-12-17T17:59:27.874Z,12.03
2022-12-17T18:02:01.117Z,13.23
2022-12-17T18:04:29.344Z,12.10
2022-12-17T18:09:45.127Z,15.33
2022-12-17T18:12:26.850Z,17.87
2022-12-17T18:17:44.185Z,17.30
2022-12-17T18:20:12.523Z,19.73
2022-12-17T18:22:40.466Z,21.57
2022-12-17T18:25:08.741Z,21.50
2022-12-17T18:27:36.834Z,13.30
2022-12-17T18:30:07.062Z,14.27
2022-12-17T18:32:34.957Z,26.77
2022-12-17T18:35:02.842Z,16.97
2022-12-17T18:37:31.163Z,17.37
2022-12-17T18:39:59.018Z,14.67
2022-12-17T18:42:44.293Z,14.67
2022-12-17T18:45:13.596Z,12.97
2022-12-17T18:47:42.599Z,10.73
2022-12-17T18:50:11.326Z,10.93
2022-12-17T18:52:39.339Z,15.17
2022-12-17T18:55:11.177Z,15.67
2022-12-17T18:57:39.060Z,22.20
2022-12-17T19:00:08.319Z,18.37
2022-12-17T19:02:37.803Z,16.27
2022-12-17T19:05:06.015Z,18.30
2022-12-17T19:07:33.933Z,17.70
2022-12-17T19:10:01.827Z,14.20
2022-12-17T19:12:29.725Z,12.80
2022-12-17T19:14:57.601Z,20.27
2022-12-17T19:17:26.485Z,16.53
2022-12-17T19:19:55.767Z,22.30
2022-12-17T19:22:23.648Z,22.80
2022-12-17T19:24:51.533Z,20.00
2022-12-17T19:27:19.402Z,15.07
2022-12-17T19:29:49.783Z,16.43
2022-12-17T19:32:18.083Z,15.07
2022-12-17T19:34:45.992Z,13.90
2022-12-17T19:37:15.234Z,14.30
2022-12-17T19:39:43.197Z,12.53
2022-12-17T19:42:24.614Z,15.73
2022-12-17T19:44:53.379Z,14.33
2022-12-17T19:47:21.360Z,11.77
2022-12-17T19:49:49.312Z,15.07
2022-12-17T19:52:18.615Z,16.67
2022-12-17T19:54:46.516Z,13.80
2022-12-17T19:57:14.346Z,17.00
2022-12-17T19:59:42.268Z,14.80
2022-12-17T20:02:10.675Z,18.67
2022-12-17T20:04:38.776Z,21.43
2022-12-17T20:07:06.747Z,23.27
2022-12-17T20:09:36.031Z,14.93
2022-12-17T20:12:04.033Z,19.10
2022-12-17T20:14:34.195Z,24.50
2022-12-17T20:17:02.711Z,25.50
2022-12-17T20:19:31.337Z,34.60
2022-12-17T20:21:59.520Z,26.47
2022-12-17T20:24:31.189Z,21.70
2022-12-17T20:27:01.472Z,23.87
2022-12-17T20:29:29.437Z,27.47
2022-12-17T20:31:57.415Z,23.47
2022-12-17T20:34:25.540Z,16.80
2022-12-17T20:36:53.726Z,12.93
2022-12-17T20:39:26.591Z,21.03
2022-12-17T20:41:55.946Z,22.27
2022-12-17T20:44:25.249Z,27.73
2022-12-17T20:46:53.206Z,26.20
2022-12-17T20:49:21.110Z,23.03
2022-12-17T20:51:49.027Z,17.87
2022-12-17T20:54:16.958Z,17.37
2022-12-17T20:56:44.835Z,15.77
2022-12-17T20:59:15.278Z,15.90
2022-12-17T21:01:44.651Z,13.47
2022-12-17T21:04:12.897Z,14.83
2022-12-17T21:06:41.572Z,15.33
2022-12-17T21:09:09.584Z,12.53
2022-12-17T21:11:38.044Z,11.23
2022-12-17T21:14:09.892Z,9.60
2022-12-17T21:16:38.297Z,10.63
2022-12-17T21:19:07.924Z,9.93
2022-12-17T21:21:37.414Z,6.67
2022-12-17T21:24:05.837Z,6.53
2022-12-17T21:26:34.500Z,4.83
2022-12-17T21:29:02.801Z,5.20
2022-12-17T21:31:32.362Z,5.07
2022-12-17T21:34:02.271Z,4.77
2022-12-17T21:36:32.641Z,6.47
2022-12-17T21:39:00.743Z,4.57
2022-12-17T21:41:30.863Z,7.17
2022-12-17T21:43:59.590Z,5.20
2022-12-17T21:46:28.316Z,4.40
2022-12-17T21:48:56.632Z,6.00
2022-12-17T21:51:24.740Z,6.30
2022-12-17T21:53:55.374Z,6.17
2022-12-17T21:56:23.287Z,7.00
2022-12-17T21:58:51.515Z,5.73
2022-12-17T22:01:20.406Z,11.37
2022-12-17T22:03:53.543Z,9.50
2022-12-17T22:06:22.732Z,5.83
2022-12-17T22:08:52.764Z,7.20
2022-12-17T22:11:26.004Z,8.57
2022-12-17T22:14:17.048Z,8.70
2022-12-17T22:16:49.637Z,8.13
2022-12-17T22:19:19.035Z,9.70
2022-12-17T22:21:50.698Z,10.83
2022-12-17T22:24:19.827Z,12.30
2022-12-17T22:26:49.125Z,10.77
2022-12-17T22:29:37.353Z,11.40
2022-12-17T22:32:24.708Z,10.73
2022-12-17T22:36:40.975Z,11.50
2022-12-17T22:41:47.259Z,10.17
2022-12-17T22:42:47.538Z,9.47
2022-12-17T22:44:43.836Z,14.77
2022-12-17T22:46:20.493Z,15.43
2022-12-17T22:48:48.408Z,10.67
2022-12-17T22:51:24.508Z,10.60
2022-12-17T22:53:57.112Z,11.60
2022-12-17T22:56:41.853Z,12.07
2022-12-17T22:59:16.652Z,19.97
2022-12-17T23:01:44.743Z,18.43
2022-12-17T23:04:13.504Z,13.13
2022-12-17T23:06:41.586Z,17.63
2022-12-17T23:09:09.547Z,18.67
2022-12-17T23:11:37.412Z,13.60
2022-12-17T23:14:06.962Z,18.77
2022-12-17T23:16:36.261Z,14.30
2022-12-17T23:19:04.943Z,18.30
2022-12-17T23:21:32.907Z,16.70
2022-12-17T23:24:00.795Z,18.50
2022-12-17T23:26:29.936Z,17.00
2022-12-17T23:29:01.851Z,16.43
2022-12-17T23:31:30.344Z,18.10
2022-12-17T23:33:59.596Z,18.23
2022-12-17T23:36:27.515Z,14.17
2022-12-17T23:38:56.640Z,19.07
2022-12-17T23:41:25.815Z,16.33
2022-12-17T23:43:53.785Z,18.10
2022-12-17T23:46:21.871Z,18.13
2022-12-17T23:48:49.930Z,18.10
2022-12-17T23:51:19.905Z,22.20
2022-12-17T23:53:48.121Z,25.97
2022-12-17T23:56:17.268Z,20.50
2022-12-17T23:58:45.735Z,22.83
